sensor_id;sensor_type;location;lat;lon;timestamp;temperature;humidity
50162;DHT22;36061;48.116;11.612;2022-08-19T00:00:19;18.70;99.90
50162;DHT22;36061;48.116;11.612;2022-08-19T00:02:45;18.70;99.90
50162;DHT22;36061;48.116;11.612;2022-08-19T00:05:13;18.70;99.90
50162;DHT22;36061;48.116;11.612;2022-08-19T00:07:39;18.70;99.90
50162;DHT22;36061;48.116;11.612;2022-08-19T00:10:11;18.80;99.90
50162;DHT22;36061;48.116;11.612;2022-08-19T00:12:38;18.70;99.90
50162;DHT22;36061;48.116;11.612;2022-08-19T00:15:07;18.70;99.90
50162;DHT22;36061;48.116;11.612;2022-08-19T00:17:36;18.70;99.90
50162;DHT22;36061;48.116;11.612;2022-08-19T00:20:02;18.70;99.90
50162;DHT22;36061;48.116;11.612;2022-08-19T00:22:28;18.60;99.90
50162;DHT22;36061;48.116;11.612;2022-08-19T00:24:54;18.60;99.90
50162;DHT22;36061;48.116;11.612;2022-08-19T00:27:19;18.70;99.90
50162;DHT22;36061;48.116;11.612;2022-08-19T00:29:45;18.60;99.90
50162;DHT22;36061;48.116;11.612;2022-08-19T00:32:11;18.60;99.90
50162;DHT22;36061;48.116;11.612;2022-08-19T00:34:37;18.60;99.90
50162;DHT22;36061;48.116;11.612;2022-08-19T00:37:03;18.70;99.90
50162;DHT22;36061;48.116;11.612;2022-08-19T00:39:29;18.70;99.90
50162;DHT22;36061;48.116;11.612;2022-08-19T00:41:55;18.60;99.90
50162;DHT22;36061;48.116;11.612;2022-08-19T00:44:25;18.60;99.90
50162;DHT22;36061;48.116;11.612;2022-08-19T00:46:53;18.60;99.90
50162;DHT22;36061;48.116;11.612;2022-08-19T00:49:27;18.50;99.90
50162;DHT22;36061;48.116;11.612;2022-08-19T00:52:16;18.50;99.90
50162;DHT22;36061;48.116;11.612;2022-08-19T00:54:45;18.50;99.90
50162;DHT22;36061;48.116;11.612;2022-08-19T00:57:17;18.50;99.90
50162;DHT22;36061;48.116;11.612;2022-08-19T00:59:47;18.50;99.90
50162;DHT22;36061;48.116;11.612;2022-08-19T01:02:15;18.50;99.90
50162;DHT22;36061;48.116;11.612;2022-08-19T01:04:41;18.50;99.90
50162;DHT22;36061;48.116;11.612;2022-08-19T01:07:07;18.60;99.90
50162;DHT22;36061;48.116;11.612;2022-08-19T01:09:33;18.60;99.90
50162;DHT22;36061;48.116;11.612;2022-08-19T01:12:00;18.50;99.90
50162;DHT22;36061;48.116;11.612;2022-08-19T01:14:25;18.50;99.90
50162;DHT22;36061;48.116;11.612;2022-08-19T01:16:53;18.50;99.90
50162;DHT22;36061;48.116;11.612;2022-08-19T01:19:28;18.50;99.90
50162;DHT22;36061;48.116;11.612;2022-08-19T01:22:04;18.50;99.90
50162;DHT22;36061;48.116;11.612;2022-08-19T01:24:31;18.50;99.90
50162;DHT22;36061;48.116;11.612;2022-08-19T01:26:58;18.50;99.90
50162;DHT22;36061;48.116;11.612;2022-08-19T01:29:24;18.60;99.90
50162;DHT22;36061;48.116;11.612;2022-08-19T01:31:49;18.60;99.90
50162;DHT22;36061;48.116;11.612;2022-08-19T01:34:18;18.60;99.90
50162;DHT22;36061;48.116;11.612;2022-08-19T01:36:46;18.60;99.90
50162;DHT22;36061;48.116;11.612;2022-08-19T01:39:22;18.60;99.90
50162;DHT22;36061;48.116;11.612;2022-08-19T01:41:49;18.60;99.90
50162;DHT22;36061;48.116;11.612;2022-08-19T01:44:15;18.60;99.90
50162;DHT22;36061;48.116;11.612;2022-08-19T01:46:43;18.60;99.90
50162;DHT22;36061;48.116;11.612;2022-08-19T01:49:09;18.50;99.90
50162;DHT22;36061;48.116;11.612;2022-08-19T01:51:36;18.60;99.90
50162;DHT22;36061;48.116;11.612;2022-08-19T01:54:02;18.60;99.90
50162;DHT22;36061;48.116;11.612;2022-08-19T01:56:28;18.60;99.90
50162;DHT22;36061;48.116;11.612;2022-08-19T01:59:01;18.60;99.90
50162;DHT22;36061;48.116;11.612;2022-08-19T02:01:27;18.60;99.90
50162;DHT22;36061;48.116;11.612;2022-08-19T02:03:58;18.50;99.90
50162;DHT22;36061;48.116;11.612;2022-08-19T02:06:25;18.50;99.90
50162;DHT22;36061;48.116;11.612;2022-08-19T02:08:51;18.60;99.90
50162;DHT22;36061;48.116;11.612;2022-08-19T02:11:36;18.60;99.90
50162;DHT22;36061;48.116;11.612;2022-08-19T02:14:06;18.60;99.90
50162;DHT22;36061;48.116;11.612;2022-08-19T02:16:33;18.50;99.90
50162;DHT22;36061;48.116;11.612;2022-08-19T02:18:59;18.50;99.90
50162;DHT22;36061;48.116;11.612;2022-08-19T02:21:26;18.60;99.90
50162;DHT22;36061;48.116;11.612;2022-08-19T02:23:52;18.50;99.90
50162;DHT22;36061;48.116;11.612;2022-08-19T02:26:19;18.60;99.90
50162;DHT22;36061;48.116;11.612;2022-08-19T02:28:45;18.60;99.90
50162;DHT22;36061;48.116;11.612;2022-08-19T02:31:15;18.50;99.90
50162;DHT22;36061;48.116;11.612;2022-08-19T02:33:41;18.50;99.90
50162;DHT22;36061;48.116;11.612;2022-08-19T02:36:08;18.40;99.90
50162;DHT22;36061;48.116;11.612;2022-08-19T02:38:34;18.40;99.90
50162;DHT22;36061;48.116;11.612;2022-08-19T02:41:04;18.40;99.90
50162;DHT22;36061;48.116;11.612;2022-08-19T02:43:32;18.40;99.90
50162;DHT22;36061;48.116;11.612;2022-08-19T02:45:58;18.40;99.90
50162;DHT22;36061;48.116;11.612;2022-08-19T02:48:25;18.30;99.90
50162;DHT22;36061;48.116;11.612;2022-08-19T02:50:52;18.30;99.90
50162;DHT22;36061;48.116;11.612;2022-08-19T02:53:26;18.40;99.90
50162;DHT22;36061;48.116;11.612;2022-08-19T02:55:52;18.40;99.90
50162;DHT22;36061;48.116;11.612;2022-08-19T02:58:18;18.40;99.90
50162;DHT22;36061;48.116;11.612;2022-08-19T03:00:51;18.40;99.90
50162;DHT22;36061;48.116;11.612;2022-08-19T03:03:18;18.40;99.90
50162;DHT22;36061;48.116;11.612;2022-08-19T03:05:45;18.40;99.90
50162;DHT22;36061;48.116;11.612;2022-08-19T03:08:12;18.40;99.90
50162;DHT22;36061;48.116;11.612;2022-08-19T03:10:43;18.50;99.90
50162;DHT22;36061;48.116;11.612;2022-08-19T03:13:11;18.50;99.90
50162;DHT22;36061;48.116;11.612;2022-08-19T03:15:42;18.50;99.90
50162;DHT22;36061;48.116;11.612;2022-08-19T03:18:09;18.50;99.90
50162;DHT22;36061;48.116;11.612;2022-08-19T03:20:43;18.50;99.90
50162;DHT22;36061;48.116;11.612;2022-08-19T03:23:10;18.50;99.90
50162;DHT22;36061;48.116;11.612;2022-08-19T03:25:46;18.50;99.90
50162;DHT22;36061;48.116;11.612;2022-08-19T03:28:14;18.50;99.90
50162;DHT22;36061;48.116;11.612;2022-08-19T03:30:41;18.50;99.90
50162;DHT22;36061;48.116;11.612;2022-08-19T03:33:09;18.40;99.90
50162;DHT22;36061;48.116;11.612;2022-08-19T03:35:37;18.40;99.90
50162;DHT22;36061;48.116;11.612;2022-08-19T03:38:04;18.40;99.90
50162;DHT22;36061;48.116;11.612;2022-08-19T03:40:32;18.40;99.90
50162;DHT22;36061;48.116;11.612;2022-08-19T03:42:58;18.40;99.90
50162;DHT22;36061;48.116;11.612;2022-08-19T03:45:24;18.40;99.90
50162;DHT22;36061;48.116;11.612;2022-08-19T03:47:49;18.40;99.90
50162;DHT22;36061;48.116;11.612;2022-08-19T03:50:16;18.40;99.90
50162;DHT22;36061;48.116;11.612;2022-08-19T03:52:42;18.40;99.90
50162;DHT22;36061;48.116;11.612;2022-08-19T03:55:08;18.40;99.90
50162;DHT22;36061;48.116;11.612;2022-08-19T03:57:34;18.40;99.90
50162;DHT22;36061;48.116;11.612;2022-08-19T04:00:00;18.40;99.90
50162;DHT22;36061;48.116;11.612;2022-08-19T04:02:26;18.50;99.90
50162;DHT22;36061;48.116;11.612;2022-08-19T04:04:53;18.50;99.90
50162;DHT22;36061;48.116;11.612;2022-08-19T04:07:20;18.50;99.90
50162;DHT22;36061;48.116;11.612;2022-08-19T04:09:47;18.50;99.90
50162;DHT22;36061;48.116;11.612;2022-08-19T04:12:14;18.50;99.90
50162;DHT22;36061;48.116;11.612;2022-08-19T04:14:40;18.50;99.90
50162;DHT22;36061;48.116;11.612;2022-08-19T04:17:07;18.60;99.90
50162;DHT22;36061;48.116;11.612;2022-08-19T04:19:34;18.60;99.90
50162;DHT22;36061;48.116;11.612;2022-08-19T04:22:00;18.60;99.90
50162;DHT22;36061;48.116;11.612;2022-08-19T04:24:26;18.60;99.90
50162;DHT22;36061;48.116;11.612;2022-08-19T04:26:52;18.60;99.90
50162;DHT22;36061;48.116;11.612;2022-08-19T04:29:21;18.60;99.90
50162;DHT22;36061;48.116;11.612;2022-08-19T04:31:51;18.70;99.90
50162;DHT22;36061;48.116;11.612;2022-08-19T04:34:20;18.70;99.90
50162;DHT22;36061;48.116;11.612;2022-08-19T04:36:48;18.70;99.90
50162;DHT22;36061;48.116;11.612;2022-08-19T04:39:19;18.70;99.90
50162;DHT22;36061;48.116;11.612;2022-08-19T04:41:45;18.80;99.90
50162;DHT22;36061;48.116;11.612;2022-08-19T04:44:34;18.70;99.90
50162;DHT22;36061;48.116;11.612;2022-08-19T04:47:01;18.70;99.90
50162;DHT22;36061;48.116;11.612;2022-08-19T04:49:31;18.60;99.90
50162;DHT22;36061;48.116;11.612;2022-08-19T04:51:56;18.70;99.90
50162;DHT22;36061;48.116;11.612;2022-08-19T04:54:24;18.70;99.90
50162;DHT22;36061;48.116;11.612;2022-08-19T04:56:52;18.70;99.90
50162;DHT22;36061;48.116;11.612;2022-08-19T04:59:19;18.70;99.90
50162;DHT22;36061;48.116;11.612;2022-08-19T05:01:46;18.80;99.90
50162;DHT22;36061;48.116;11.612;2022-08-19T05:04:15;18.80;99.90
50162;DHT22;36061;48.116;11.612;2022-08-19T05:06:42;18.80;99.90
50162;DHT22;36061;48.116;11.612;2022-08-19T05:09:08;18.80;99.90
50162;DHT22;36061;48.116;11.612;2022-08-19T05:11:36;18.90;99.90
50162;DHT22;36061;48.116;11.612;2022-08-19T05:14:06;18.80;99.90
50162;DHT22;36061;48.116;11.612;2022-08-19T05:16:32;18.90;99.90
50162;DHT22;36061;48.116;11.612;2022-08-19T05:18:58;18.90;99.90
50162;DHT22;36061;48.116;11.612;2022-08-19T05:21:43;18.90;99.90
50162;DHT22;36061;48.116;11.612;2022-08-19T05:24:27;18.90;99.90
50162;DHT22;36061;48.116;11.612;2022-08-19T05:26:54;18.90;99.90
50162;DHT22;36061;48.116;11.612;2022-08-19T05:29:23;18.90;99.90
50162;DHT22;36061;48.116;11.612;2022-08-19T05:31:52;18.90;99.90
50162;DHT22;36061;48.116;11.612;2022-08-19T05:34:20;18.90;99.90
50162;DHT22;36061;48.116;11.612;2022-08-19T05:36:49;18.90;99.90
50162;DHT22;36061;48.116;11.612;2022-08-19T05:39:18;18.90;99.90
50162;DHT22;36061;48.116;11.612;2022-08-19T05:41:47;18.90;99.90
50162;DHT22;36061;48.116;11.612;2022-08-19T05:44:14;18.90;99.90
50162;DHT22;36061;48.116;11.612;2022-08-19T05:46:43;18.80;99.90
50162;DHT22;36061;48.116;11.612;2022-08-19T05:49:09;18.80;99.90
50162;DHT22;36061;48.116;11.612;2022-08-19T05:51:36;18.80;99.90
50162;DHT22;36061;48.116;11.612;2022-08-19T05:54:06;18.80;99.90
50162;DHT22;36061;48.116;11.612;2022-08-19T05:56:33;18.90;99.90
50162;DHT22;36061;48.116;11.612;2022-08-19T05:59:02;18.90;99.90
50162;DHT22;36061;48.116;11.612;2022-08-19T06:01:28;18.90;99.90
50162;DHT22;36061;48.116;11.612;2022-08-19T06:03:53;18.90;99.90
50162;DHT22;36061;48.116;11.612;2022-08-19T06:06:20;19.00;99.90
50162;DHT22;36061;48.116;11.612;2022-08-19T06:08:46;19.20;99.90
50162;DHT22;36061;48.116;11.612;2022-08-19T06:13:44;19.40;99.90
50162;DHT22;36061;48.116;11.612;2022-08-19T06:16:16;19.40;99.90
50162;DHT22;36061;48.116;11.612;2022-08-19T06:18:50;19.40;99.90
50162;DHT22;36061;48.116;11.612;2022-08-19T06:21:18;19.40;99.90
50162;DHT22;36061;48.116;11.612;2022-08-19T06:23:45;19.40;99.90
50162;DHT22;36061;48.116;11.612;2022-08-19T06:26:14;19.50;99.90
50162;DHT22;36061;48.116;11.612;2022-08-19T06:28:40;19.50;99.90
50162;DHT22;36061;48.116;11.612;2022-08-19T06:31:20;19.60;99.90
50162;DHT22;36061;48.116;11.612;2022-08-19T06:33:47;19.60;99.90
50162;DHT22;36061;48.116;11.612;2022-08-19T06:36:24;19.70;99.90
50162;DHT22;36061;48.116;11.612;2022-08-19T06:38:58;19.80;99.90
50162;DHT22;36061;48.116;11.612;2022-08-19T06:41:27;19.80;99.90
50162;DHT22;36061;48.116;11.612;2022-08-19T06:43:54;19.70;99.90
50162;DHT22;36061;48.116;11.612;2022-08-19T06:46:20;19.60;99.90
50162;DHT22;36061;48.116;11.612;2022-08-19T06:48:47;19.50;99.90
50162;DHT22;36061;48.116;11.612;2022-08-19T06:51:15;19.40;99.90
50162;DHT22;36061;48.116;11.612;2022-08-19T06:53:47;19.30;99.90
50162;DHT22;36061;48.116;11.612;2022-08-19T06:56:18;19.30;99.90
50162;DHT22;36061;48.116;11.612;2022-08-19T06:58:44;19.20;99.90
50162;DHT22;36061;48.116;11.612;2022-08-19T07:01:12;19.10;99.90
50162;DHT22;36061;48.116;11.612;2022-08-19T07:03:38;19.10;99.90
50162;DHT22;36061;48.116;11.612;2022-08-19T07:06:15;19.10;99.90
50162;DHT22;36061;48.116;11.612;2022-08-19T07:08:44;19.00;99.90
50162;DHT22;36061;48.116;11.612;2022-08-19T07:11:13;19.00;99.90
50162;DHT22;36061;48.116;11.612;2022-08-19T07:13:40;19.10;99.90
50162;DHT22;36061;48.116;11.612;2022-08-19T07:16:07;19.10;99.90
50162;DHT22;36061;48.116;11.612;2022-08-19T07:18:33;19.10;99.90
50162;DHT22;36061;48.116;11.612;2022-08-19T07:21:08;19.10;99.90
50162;DHT22;36061;48.116;11.612;2022-08-19T07:23:35;19.10;99.90
50162;DHT22;36061;48.116;11.612;2022-08-19T07:26:17;19.20;99.90
50162;DHT22;36061;48.116;11.612;2022-08-19T07:28:45;19.20;99.90
50162;DHT22;36061;48.116;11.612;2022-08-19T07:31:15;19.20;99.90
50162;DHT22;36061;48.116;11.612;2022-08-19T07:33:44;19.20;99.90
50162;DHT22;36061;48.116;11.612;2022-08-19T07:36:11;19.20;99.90
50162;DHT22;36061;48.116;11.612;2022-08-19T07:38:41;19.30;99.90
50162;DHT22;36061;48.116;11.612;2022-08-19T07:41:09;19.30;99.90
50162;DHT22;36061;48.116;11.612;2022-08-19T07:43:36;19.30;99.90
50162;DHT22;36061;48.116;11.612;2022-08-19T07:46:02;19.30;99.90
50162;DHT22;36061;48.116;11.612;2022-08-19T07:48:28;19.40;99.90
50162;DHT22;36061;48.116;11.612;2022-08-19T07:50:58;19.40;99.90
50162;DHT22;36061;48.116;11.612;2022-08-19T07:53:28;19.40;99.90
50162;DHT22;36061;48.116;11.612;2022-08-19T07:55:54;19.40;99.90
50162;DHT22;36061;48.116;11.612;2022-08-19T07:58:21;19.40;99.90
50162;DHT22;36061;48.116;11.612;2022-08-19T08:00:49;19.30;99.90
50162;DHT22;36061;48.116;11.612;2022-08-19T08:03:18;19.30;99.90
50162;DHT22;36061;48.116;11.612;2022-08-19T08:05:44;19.30;99.90
50162;DHT22;36061;48.116;11.612;2022-08-19T08:08:29;19.30;99.90
50162;DHT22;36061;48.116;11.612;2022-08-19T08:11:18;19.30;99.90
50162;DHT22;36061;48.116;11.612;2022-08-19T08:13:44;19.30;99.90
50162;DHT22;36061;48.116;11.612;2022-08-19T08:16:10;19.30;99.90
50162;DHT22;36061;48.116;11.612;2022-08-19T08:18:36;19.30;99.90
50162;DHT22;36061;48.116;11.612;2022-08-19T08:21:07;19.20;99.90
50162;DHT22;36061;48.116;11.612;2022-08-19T08:23:33;19.30;99.90
50162;DHT22;36061;48.116;11.612;2022-08-19T08:25:59;19.30;99.90
50162;DHT22;36061;48.116;11.612;2022-08-19T08:28:26;19.20;99.90
50162;DHT22;36061;48.116;11.612;2022-08-19T08:30:56;19.30;99.90
50162;DHT22;36061;48.116;11.612;2022-08-19T08:33:24;19.30;99.90
50162;DHT22;36061;48.116;11.612;2022-08-19T08:35:50;19.30;99.90
50162;DHT22;36061;48.116;11.612;2022-08-19T08:38:16;19.30;99.90
50162;DHT22;36061;48.116;11.612;2022-08-19T08:40:49;19.30;99.90
50162;DHT22;36061;48.116;11.612;2022-08-19T08:43:28;19.30;99.90
50162;DHT22;36061;48.116;11.612;2022-08-19T08:46:09;19.30;99.90
50162;DHT22;36061;48.116;11.612;2022-08-19T08:51:36;19.30;99.90
50162;DHT22;36061;48.116;11.612;2022-08-19T08:54:06;19.30;99.90
50162;DHT22;36061;48.116;11.612;2022-08-19T08:56:33;19.30;99.90
50162;DHT22;36061;48.116;11.612;2022-08-19T08:59:05;19.30;99.90
50162;DHT22;36061;48.116;11.612;2022-08-19T09:01:34;19.20;99.90
50162;DHT22;36061;48.116;11.612;2022-08-19T09:04:04;19.20;99.90
50162;DHT22;36061;48.116;11.612;2022-08-19T09:06:43;19.30;99.90
50162;DHT22;36061;48.116;11.612;2022-08-19T09:09:32;19.20;99.90
50162;DHT22;36061;48.116;11.612;2022-08-19T09:17:24;19.20;99.90
50162;DHT22;36061;48.116;11.612;2022-08-19T09:19:59;19.20;99.90
50162;DHT22;36061;48.116;11.612;2022-08-19T09:22:30;19.20;99.90
50162;DHT22;36061;48.116;11.612;2022-08-19T09:24:56;19.20;99.90
50162;DHT22;36061;48.116;11.612;2022-08-19T09:27:23;19.20;99.90
50162;DHT22;36061;48.116;11.612;2022-08-19T09:29:50;19.10;99.90
50162;DHT22;36061;48.116;11.612;2022-08-19T09:32:16;19.00;99.90
50162;DHT22;36061;48.116;11.612;2022-08-19T09:34:43;19.00;99.90
50162;DHT22;36061;48.116;11.612;2022-08-19T09:37:10;18.90;99.90
50162;DHT22;36061;48.116;11.612;2022-08-19T09:39:36;18.90;99.90
50162;DHT22;36061;48.116;11.612;2022-08-19T09:42:02;18.90;99.90
50162;DHT22;36061;48.116;11.612;2022-08-19T09:44:29;18.90;99.90
50162;DHT22;36061;48.116;11.612;2022-08-19T09:46:55;19.00;99.90
50162;DHT22;36061;48.116;11.612;2022-08-19T09:49:21;19.00;99.90
50162;DHT22;36061;48.116;11.612;2022-08-19T09:51:51;19.10;99.90
50162;DHT22;36061;48.116;11.612;2022-08-19T09:54:19;19.20;99.90
50162;DHT22;36061;48.116;11.612;2022-08-19T09:56:45;19.30;99.90
50162;DHT22;36061;48.116;11.612;2022-08-19T09:59:10;19.40;99.90
50162;DHT22;36061;48.116;11.612;2022-08-19T10:01:37;19.50;99.90
50162;DHT22;36061;48.116;11.612;2022-08-19T10:04:03;19.60;99.90
50162;DHT22;36061;48.116;11.612;2022-08-19T10:06:37;19.70;99.90
50162;DHT22;36061;48.116;11.612;2022-08-19T10:09:05;19.70;99.90
50162;DHT22;36061;48.116;11.612;2022-08-19T10:11:34;19.60;99.90
50162;DHT22;36061;48.116;11.612;2022-08-19T10:14:01;19.60;99.90
50162;DHT22;36061;48.116;11.612;2022-08-19T10:16:27;19.70;99.90
50162;DHT22;36061;48.116;11.612;2022-08-19T10:18:54;19.90;99.90
50162;DHT22;36061;48.116;11.612;2022-08-19T10:21:22;20.00;99.90
50162;DHT22;36061;48.116;11.612;2022-08-19T10:23:51;20.10;99.90
50162;DHT22;36061;48.116;11.612;2022-08-19T10:26:22;20.10;99.90
50162;DHT22;36061;48.116;11.612;2022-08-19T10:28:48;20.10;99.90
50162;DHT22;36061;48.116;11.612;2022-08-19T10:31:18;20.10;99.90
50162;DHT22;36061;48.116;11.612;2022-08-19T10:33:46;20.10;99.90
50162;DHT22;36061;48.116;11.612;2022-08-19T10:36:16;20.10;99.90
50162;DHT22;36061;48.116;11.612;2022-08-19T10:38:47;20.20;99.90
50162;DHT22;36061;48.116;11.612;2022-08-19T10:41:17;20.20;99.90
50162;DHT22;36061;48.116;11.612;2022-08-19T10:43:44;20.20;99.90
50162;DHT22;36061;48.116;11.612;2022-08-19T10:46:13;20.30;99.90
50162;DHT22;36061;48.116;11.612;2022-08-19T10:48:41;20.40;99.90
50162;DHT22;36061;48.116;11.612;2022-08-19T10:51:09;20.50;99.90
50162;DHT22;36061;48.116;11.612;2022-08-19T10:53:53;20.60;99.90
50162;DHT22;36061;48.116;11.612;2022-08-19T10:56:19;20.70;99.90
50162;DHT22;36061;48.116;11.612;2022-08-19T10:59:04;20.80;99.90
50162;DHT22;36061;48.116;11.612;2022-08-19T11:01:31;20.90;99.90
50162;DHT22;36061;48.116;11.612;2022-08-19T11:03:59;20.90;99.90
50162;DHT22;36061;48.116;11.612;2022-08-19T11:06:25;21.00;99.90
50162;DHT22;36061;48.116;11.612;2022-08-19T11:08:52;21.00;99.90
50162;DHT22;36061;48.116;11.612;2022-08-19T11:11:18;21.00;99.90
50162;DHT22;36061;48.116;11.612;2022-08-19T11:13:44;21.00;99.90
50162;DHT22;36061;48.116;11.612;2022-08-19T11:16:15;20.90;99.90
50162;DHT22;36061;48.116;11.612;2022-08-19T11:18:45;20.80;99.90
50162;DHT22;36061;48.116;11.612;2022-08-19T11:21:23;20.80;99.90
50162;DHT22;36061;48.116;11.612;2022-08-19T11:23:53;20.80;99.90
50162;DHT22;36061;48.116;11.612;2022-08-19T11:26:20;20.90;99.90
50162;DHT22;36061;48.116;11.612;2022-08-19T11:28:47;21.00;99.90
50162;DHT22;36061;48.116;11.612;2022-08-19T11:31:22;21.00;99.90
50162;DHT22;36061;48.116;11.612;2022-08-19T11:33:49;21.10;99.90
50162;DHT22;36061;48.116;11.612;2022-08-19T11:36:18;21.20;99.90
50162;DHT22;36061;48.116;11.612;2022-08-19T11:38:47;21.20;99.90
50162;DHT22;36061;48.116;11.612;2022-08-19T11:41:15;21.30;99.90
50162;DHT22;36061;48.116;11.612;2022-08-19T11:43:41;21.40;99.90
50162;DHT22;36061;48.116;11.612;2022-08-19T11:46:09;21.40;99.90
50162;DHT22;36061;48.116;11.612;2022-08-19T11:48:36;21.40;99.90
50162;DHT22;36061;48.116;11.612;2022-08-19T11:51:07;21.20;99.90
50162;DHT22;36061;48.116;11.612;2022-08-19T11:53:34;21.10;99.90
50162;DHT22;36061;48.116;11.612;2022-08-19T11:56:00;21.00;99.90
50162;DHT22;36061;48.116;11.612;2022-08-19T11:58:26;20.80;99.90
50162;DHT22;36061;48.116;11.612;2022-08-19T12:00:52;20.80;99.90
50162;DHT22;36061;48.116;11.612;2022-08-19T12:03:18;20.90;99.90
50162;DHT22;36061;48.116;11.612;2022-08-19T12:05:47;20.90;99.90
50162;DHT22;36061;48.116;11.612;2022-08-19T12:08:13;21.00;99.90
50162;DHT22;36061;48.116;11.612;2022-08-19T12:10:41;21.00;99.90
50162;DHT22;36061;48.116;11.612;2022-08-19T12:13:08;21.00;99.90
50162;DHT22;36061;48.116;11.612;2022-08-19T12:15:38;21.00;99.90
50162;DHT22;36061;48.116;11.612;2022-08-19T12:18:07;20.90;99.90
50162;DHT22;36061;48.116;11.612;2022-08-19T12:20:38;20.90;99.90
50162;DHT22;36061;48.116;11.612;2022-08-19T12:23:06;20.80;99.90
50162;DHT22;36061;48.116;11.612;2022-08-19T12:25:32;20.80;99.90
50162;DHT22;36061;48.116;11.612;2022-08-19T12:27:59;20.70;99.90
50162;DHT22;36061;48.116;11.612;2022-08-19T12:30:25;20.60;99.90
50162;DHT22;36061;48.116;11.612;2022-08-19T12:32:51;20.70;99.90
50162;DHT22;36061;48.116;11.612;2022-08-19T12:35:17;20.70;99.90
50162;DHT22;36061;48.116;11.612;2022-08-19T12:37:46;20.80;99.90
50162;DHT22;36061;48.116;11.612;2022-08-19T12:40:13;20.80;99.90
50162;DHT22;36061;48.116;11.612;2022-08-19T12:42:40;20.80;99.90
50162;DHT22;36061;48.116;11.612;2022-08-19T12:45:12;20.90;99.90
50162;DHT22;36061;48.116;11.612;2022-08-19T12:47:39;20.90;99.90
50162;DHT22;36061;48.116;11.612;2022-08-19T12:50:06;20.90;99.90
50162;DHT22;36061;48.116;11.612;2022-08-19T12:52:36;21.00;99.90
50162;DHT22;36061;48.116;11.612;2022-08-19T12:55:07;21.00;99.90
50162;DHT22;36061;48.116;11.612;2022-08-19T12:57:33;21.00;99.90
50162;DHT22;36061;48.116;11.612;2022-08-19T13:00:11;21.00;99.90
50162;DHT22;36061;48.116;11.612;2022-08-19T13:02:42;21.00;99.90
50162;DHT22;36061;48.116;11.612;2022-08-19T13:05:19;21.00;99.90
50162;DHT22;36061;48.116;11.612;2022-08-19T13:07:48;21.10;99.90
50162;DHT22;36061;48.116;11.612;2022-08-19T13:10:16;21.20;99.90
50162;DHT22;36061;48.116;11.612;2022-08-19T13:12:44;21.30;99.90
50162;DHT22;36061;48.116;11.612;2022-08-19T13:15:11;21.30;99.90
50162;DHT22;36061;48.116;11.612;2022-08-19T13:17:38;21.40;99.90
50162;DHT22;36061;48.116;11.612;2022-08-19T13:20:05;21.40;99.90
50162;DHT22;36061;48.116;11.612;2022-08-19T13:22:33;21.40;99.90
50162;DHT22;36061;48.116;11.612;2022-08-19T13:24:59;21.40;99.90
50162;DHT22;36061;48.116;11.612;2022-08-19T13:27:24;21.50;99.90
50162;DHT22;36061;48.116;11.612;2022-08-19T13:29:50;21.50;99.90
50162;DHT22;36061;48.116;11.612;2022-08-19T13:32:34;21.60;99.90
50162;DHT22;36061;48.116;11.612;2022-08-19T13:35:19;21.70;99.90
50162;DHT22;36061;48.116;11.612;2022-08-19T13:37:45;21.60;99.90
50162;DHT22;36061;48.116;11.612;2022-08-19T13:40:12;21.70;99.90
50162;DHT22;36061;48.116;11.612;2022-08-19T13:42:41;21.70;99.90
50162;DHT22;36061;48.116;11.612;2022-08-19T13:45:07;21.70;99.90
50162;DHT22;36061;48.116;11.612;2022-08-19T13:47:34;21.80;99.90
50162;DHT22;36061;48.116;11.612;2022-08-19T13:50:03;21.80;99.90
50162;DHT22;36061;48.116;11.612;2022-08-19T13:52:29;21.80;99.90
50162;DHT22;36061;48.116;11.612;2022-08-19T13:54:55;21.80;99.90
50162;DHT22;36061;48.116;11.612;2022-08-19T13:57:22;21.80;99.90
50162;DHT22;36061;48.116;11.612;2022-08-19T13:59:48;21.80;99.90
50162;DHT22;36061;48.116;11.612;2022-08-19T14:02:14;21.70;99.90
50162;DHT22;36061;48.116;11.612;2022-08-19T14:04:40;21.70;99.90
50162;DHT22;36061;48.116;11.612;2022-08-19T14:07:06;21.60;99.90
50162;DHT22;36061;48.116;11.612;2022-08-19T14:09:31;21.60;99.90
50162;DHT22;36061;48.116;11.612;2022-08-19T14:11:57;21.60;99.90
50162;DHT22;36061;48.116;11.612;2022-08-19T14:14:23;21.50;99.90
50162;DHT22;36061;48.116;11.612;2022-08-19T14:16:49;21.40;99.90
50162;DHT22;36061;48.116;11.612;2022-08-19T14:19:15;21.40;99.90
50162;DHT22;36061;48.116;11.612;2022-08-19T14:21:40;21.40;99.90
50162;DHT22;36061;48.116;11.612;2022-08-19T14:24:07;21.30;99.90
50162;DHT22;36061;48.116;11.612;2022-08-19T14:26:34;21.30;99.90
50162;DHT22;36061;48.116;11.612;2022-08-19T14:28:59;21.30;99.90
50162;DHT22;36061;48.116;11.612;2022-08-19T14:31:27;21.40;99.90
50162;DHT22;36061;48.116;11.612;2022-08-19T14:33:52;21.50;99.90
50162;DHT22;36061;48.116;11.612;2022-08-19T14:36:19;21.50;99.90
50162;DHT22;36061;48.116;11.612;2022-08-19T14:38:46;21.50;99.90
50162;DHT22;36061;48.116;11.612;2022-08-19T14:41:19;21.60;99.90
50162;DHT22;36061;48.116;11.612;2022-08-19T14:43:47;21.60;99.90
50162;DHT22;36061;48.116;11.612;2022-08-19T14:46:15;21.60;99.90
50162;DHT22;36061;48.116;11.612;2022-08-19T14:48:42;21.60;99.90
50162;DHT22;36061;48.116;11.612;2022-08-19T14:51:08;21.60;99.90
50162;DHT22;36061;48.116;11.612;2022-08-19T14:53:34;21.50;99.90
50162;DHT22;36061;48.116;11.612;2022-08-19T14:56:01;21.50;99.90
50162;DHT22;36061;48.116;11.612;2022-08-19T14:58:28;21.40;99.90
50162;DHT22;36061;48.116;11.612;2022-08-19T15:00:53;21.30;99.90
50162;DHT22;36061;48.116;11.612;2022-08-19T15:03:22;21.30;99.90
50162;DHT22;36061;48.116;11.612;2022-08-19T15:05:48;21.20;99.90
50162;DHT22;36061;48.116;11.612;2022-08-19T15:08:14;21.20;99.90
50162;DHT22;36061;48.116;11.612;2022-08-19T15:10:39;21.10;99.90
50162;DHT22;36061;48.116;11.612;2022-08-19T15:13:05;21.10;99.90
50162;DHT22;36061;48.116;11.612;2022-08-19T15:15:31;21.20;99.90
50162;DHT22;36061;48.116;11.612;2022-08-19T15:17:57;21.20;99.90
50162;DHT22;36061;48.116;11.612;2022-08-19T15:20:28;21.20;99.90
50162;DHT22;36061;48.116;11.612;2022-08-19T15:22:54;21.30;99.90
50162;DHT22;36061;48.116;11.612;2022-08-19T15:25:20;21.30;99.90
50162;DHT22;36061;48.116;11.612;2022-08-19T15:27:47;21.20;99.90
50162;DHT22;36061;48.116;11.612;2022-08-19T15:30:24;21.20;99.90
50162;DHT22;36061;48.116;11.612;2022-08-19T15:32:50;21.10;99.90